Time;durP1;ratioP1;P1;durP2;ratioP2;P2;SDS_P1;SDS_P2;PMS_P1;PMS_P2;Temp;Humidity;BMP_temperature;BMP_pressure;BME280_temperature;BME280_humidity;BME280_pressure;Samples;Min_cycle;Max_cycle;Signal;HPM_P1;HPM_P2
2022/12/19 00:02:08;;;;;;;10.90;2.80;;;10.90;99.90;;;;;;5035595;28;20029;-77
2022/12/19 00:04:34;;;;;;;10.73;2.65;;;11.00;99.90;;;;;;5042274;28;20110;-76
2022/12/19 00:06:59;;;;;;;19.45;3.88;;;11.00;99.90;;;;;;5034494;28;20232;-76
2022/12/19 00:09:26;;;;;;;13.95;3.78;;;11.00;99.90;;;;;;5045477;28;20036;-76
2022/12/19 00:11:52;;;;;;;18.98;3.30;;;11.00;99.90;;;;;;5037885;28;20079;-76
2022/12/19 00:14:18;;;;;;;20.70;4.10;;;11.00;99.90;;;;;;5018725;28;20025;-76
2022/12/19 00:16:44;;;;;;;16.15;4.00;;;11.00;99.90;;;;;;5015660;28;20303;-75
2022/12/19 00:19:10;;;;;;;18.63;3.75;;;11.00;99.90;;;;;;5019562;28;20029;-76
2022/12/19 00:21:37;;;;;;;23.80;3.83;;;11.00;99.90;;;;;;5037057;28;20033;-77
2022/12/19 00:24:04;;;;;;;15.52;4.10;;;11.10;99.90;;;;;;5032417;28;20469;-77
2022/12/19 00:26:31;;;;;;;22.20;4.53;;;11.10;99.90;;;;;;5029909;28;20123;-76
2022/12/19 00:29:05;;;;;;;26.70;5.00;;;11.10;99.90;;;;;;5017482;28;20803;-76
2022/12/19 00:31:33;;;;;;;17.95;4.38;;;11.10;99.90;;;;;;5039286;28;20087;-76
2022/12/19 00:34:00;;;;;;;19.45;4.07;;;11.10;99.90;;;;;;5033411;28;20393;-76
2022/12/19 00:36:28;;;;;;;14.70;3.88;;;11.10;99.90;;;;;;5037907;28;20055;-76
2022/12/19 00:38:56;;;;;;;23.38;4.60;;;11.10;99.90;;;;;;5035220;28;20080;-76
2022/12/19 00:41:25;;;;;;;20.67;4.68;;;11.10;99.90;;;;;;5027452;28;20396;-76
2022/12/19 00:43:56;;;;;;;24.60;4.72;;;11.10;99.90;;;;;;5036071;28;20521;-76
2022/12/19 00:46:21;;;;;;;25.40;5.13;;;11.10;99.90;;;;;;5033530;28;20040;-77
2022/12/19 00:48:47;;;;;;;29.17;5.20;;;11.20;99.90;;;;;;5034283;28;20547;-76
2022/12/19 00:51:16;;;;;;;30.13;7.18;;;11.20;99.90;;;;;;5036636;28;20025;-77
2022/12/19 00:53:43;;;;;;;27.13;5.35;;;11.20;99.90;;;;;;5037856;28;20108;-77
2022/12/19 00:56:12;;;;;;;23.88;4.95;;;11.30;99.90;;;;;;5034047;28;20161;-76
2022/12/19 00:58:37;;;;;;;38.75;4.90;;;11.30;99.90;;;;;;5033757;28;20024;-76
2022/12/19 01:01:09;;;;;;;24.23;4.47;;;11.30;99.90;;;;;;5043740;28;20454;-76
2022/12/19 01:03:35;;;;;;;;;;;11.30;99.90;;;;;;5029955;28;20405;-76
2022/12/19 01:06:01;;;;;;;20.38;4.90;;;11.20;99.90;;;;;;5016602;28;19924;-77
2022/12/19 01:08:26;;;;;;;34.33;5.20;;;11.30;99.90;;;;;;5032919;28;20032;-77
2022/12/19 01:10:52;;;;;;;27.35;5.35;;;11.30;99.90;;;;;;5040825;28;20508;-77
2022/12/19 01:13:20;;;;;;;22.95;4.90;;;11.30;99.90;;;;;;5031674;28;20040;-77
2022/12/19 01:15:46;;;;;;;29.85;4.70;;;11.20;99.90;;;;;;5034317;28;20021;-76
2022/12/19 01:18:12;;;;;;;28.08;4.90;;;11.30;99.90;;;;;;5029849;28;20033;-77
2022/12/19 01:20:39;;;;;;;22.80;4.68;;;11.30;99.90;;;;;;5040577;28;20025;-77
2022/12/19 01:23:06;;;;;;;21.60;5.20;;;11.30;99.90;;;;;;5029487;28;20025;-77
2022/12/19 01:25:33;;;;;;;19.70;4.40;;;11.30;99.90;;;;;;5035094;28;20174;-78
2022/12/19 01:27:59;;;;;;;24.05;4.57;;;11.20;99.90;;;;;;5028864;28;20287;-78
2022/12/19 01:30:26;;;;;;;26.40;5.97;;;11.30;99.90;;;;;;5040914;28;20444;-78
2022/12/19 01:32:52;;;;;;;20.70;4.03;;;11.30;99.90;;;;;;5024928;28;20060;-77
2022/12/19 01:35:17;;;;;;;20.38;4.95;;;11.20;99.90;;;;;;5042593;28;20128;-77
2022/12/19 01:37:43;;;;;;;26.70;4.78;;;11.20;99.90;;;;;;5016388;28;20029;-77
2022/12/19 01:40:11;;;;;;;32.85;6.03;;;11.20;99.90;;;;;;5030835;28;20112;-78
2022/12/19 01:42:37;;;;;;;16.02;4.15;;;11.20;99.90;;;;;;5037535;28;20142;-77
2022/12/19 01:45:08;;;;;;;24.75;4.57;;;11.20;99.90;;;;;;5040757;28;20488;-76
2022/12/19 01:48:01;;;;;;;22.95;4.75;;;11.20;99.90;;;;;;5025658;28;20052;-78
2022/12/19 01:50:45;;;;;;;20.17;4.07;;;11.20;99.90;;;;;;5032133;28;20249;-77
2022/12/19 01:53:12;;;;;;;22.02;5.03;;;11.20;99.90;;;;;;5013663;28;20069;-77
2022/12/19 01:55:40;;;;;;;29.33;6.03;;;11.20;99.90;;;;;;5014102;28;20158;-77
2022/12/19 01:58:07;;;;;;;18.70;5.28;;;11.20;99.90;;;;;;5039835;28;20326;-75
2022/12/19 02:00:33;;;;;;;22.42;5.45;;;11.20;99.90;;;;;;5034899;28;20134;-76
2022/12/19 02:03:08;;;;;;;27.77;5.07;;;11.20;99.90;;;;;;5033018;28;20022;-76
2022/12/19 02:05:34;;;;;;;34.30;6.60;;;11.20;99.90;;;;;;5031126;28;20081;-76
2022/12/19 02:08:01;;;;;;;27.58;5.57;;;11.20;99.90;;;;;;5012658;28;20515;-76
2022/12/19 02:10:27;;;;;;;31.98;5.68;;;11.20;99.90;;;;;;5032253;28;20028;-76
2022/12/19 02:12:52;;;;;;;31.30;6.15;;;11.20;99.90;;;;;;5032996;28;20045;-76
2022/12/19 02:15:19;;;;;;;28.48;5.63;;;11.10;99.90;;;;;;5039086;28;20100;-76
2022/12/19 02:17:51;;;;;;;34.85;6.55;;;11.10;99.90;;;;;;5036896;28;20033;-76
2022/12/19 02:20:38;;;;;;;22.42;4.68;;;11.10;99.90;;;;;;5034188;28;20033;-77
2022/12/19 02:23:34;;;;;;;26.95;5.65;;;11.10;99.90;;;;;;5024271;28;20088;-76
2022/12/19 02:26:08;;;;;;;22.05;5.18;;;11.20;99.90;;;;;;5035903;28;20052;-76
2022/12/19 02:29:16;;;;;;;33.40;6.22;;;11.10;99.90;;;;;;5019056;28;20147;-75
2022/12/19 02:31:53;;;;;;;30.80;5.80;;;11.10;99.90;;;;;;4971984;28;20315;-76
2022/12/19 02:34:41;;;;;;;35.47;5.80;;;11.10;99.90;;;;;;5032509;28;20025;-76
2022/12/19 02:37:12;;;;;;;25.65;5.78;;;11.10;99.90;;;;;;5029134;28;20169;-75
2022/12/19 02:39:47;;;;;;;33.17;6.15;;;11.00;99.90;;;;;;5034186;28;20036;-76
2022/12/19 02:42:25;;;;;;;24.30;5.70;;;11.10;99.90;;;;;;5035178;28;20037;-76
2022/12/19 02:44:53;;;;;;;33.80;5.35;;;11.10;99.90;;;;;;5030929;28;20030;-76
2022/12/19 02:47:20;;;;;;;29.83;5.18;;;11.10;99.90;;;;;;5030201;28;20052;-76
2022/12/19 02:49:46;;;;;;;33.50;5.68;;;11.20;99.90;;;;;;5033912;28;20138;-76
2022/12/19 02:52:31;;;;;;;28.23;5.40;;;11.20;99.90;;;;;;5038611;28;20473;-76
2022/12/19 02:55:13;;;;;;;34.85;5.82;;;11.30;99.90;;;;;;5035471;28;20076;-76
2022/12/19 02:57:47;;;;;;;26.05;5.47;;;11.30;99.90;;;;;;5026459;28;20029;-77
2022/12/19 03:00:19;;;;;;;27.05;5.40;;;11.30;99.90;;;;;;5034204;28;20057;-77
2022/12/19 03:02:48;;;;;;;;;;;11.20;99.90;;;;;;5043531;28;20101;-77
2022/12/19 03:05:34;;;;;;;29.48;4.85;;;11.30;99.90;;;;;;5016468;28;19957;-76
2022/12/19 03:08:07;;;;;;;28.25;5.90;;;11.30;99.90;;;;;;5035868;28;20128;-78
2022/12/19 03:10:44;;;;;;;29.90;5.35;;;11.30;99.90;;;;;;5035733;28;20473;-78
2022/12/19 03:13:29;;;;;;;25.13;4.85;;;11.30;99.90;;;;;;5032505;28;20021;-78
2022/12/19 03:15:56;;;;;;;27.45;5.07;;;11.30;99.90;;;;;;5018797;28;20080;-77
2022/12/19 03:18:22;;;;;;;33.90;6.10;;;11.30;99.90;;;;;;5036690;28;20107;-78
2022/12/19 03:21:03;;;;;;;24.90;5.07;;;11.40;99.90;;;;;;5035866;28;20032;-79
2022/12/19 03:23:29;;;;;;;31.02;4.38;;;11.40;99.90;;;;;;5019529;28;20040;-78
2022/12/19 03:26:00;;;;;;;20.08;4.53;;;11.40;99.90;;;;;;5032502;28;20098;-78
2022/12/19 03:28:37;;;;;;;19.38;4.72;;;11.40;99.90;;;;;;5042210;28;20044;-77
2022/12/19 03:31:04;;;;;;;26.25;4.40;;;11.50;99.90;;;;;;5031039;28;20057;-79
2022/12/19 03:33:31;;;;;;;38.97;5.35;;;11.50;99.90;;;;;;5029585;28;20519;-78
2022/12/19 03:36:00;;;;;;;21.85;4.82;;;11.50;99.90;;;;;;5035453;28;20202;-78
2022/12/19 03:38:27;;;;;;;25.35;4.70;;;11.50;99.90;;;;;;5035702;28;20037;-78
2022/12/19 03:40:54;;;;;;;19.98;4.25;;;11.60;99.90;;;;;;5013516;28;20104;-77
2022/12/19 03:43:22;;;;;;;23.05;4.45;;;11.60;99.90;;;;;;5033251;28;20256;-78
2022/12/19 03:45:58;;;;;;;18.88;3.80;;;11.60;99.90;;;;;;5033381;28;20040;-78
2022/12/19 03:48:43;;;;;;;27.10;4.60;;;11.70;99.90;;;;;;5040502;28;20128;-79
2022/12/19 03:51:34;;;;;;;29.70;4.97;;;11.70;99.90;;;;;;5040252;28;20459;-78
2022/12/19 03:54:06;;;;;;;;;;;11.60;99.90;;;;;;5034830;28;20688;-77
2022/12/19 03:56:50;;;;;;;21.75;4.35;;;11.60;99.90;;;;;;5036139;28;19913;-79
2022/12/19 03:59:26;;;;;;;23.48;4.55;;;11.60;99.90;;;;;;5032259;28;20113;-78
2022/12/19 04:01:53;;;;;;;17.73;4.22;;;11.50;99.90;;;;;;5029440;28;20057;-77
2022/12/19 04:04:20;;;;;;;26.13;4.93;;;11.60;99.90;;;;;;5032296;28;20060;-78
2022/12/19 04:06:47;;;;;;;20.17;4.22;;;11.60;99.90;;;;;;5034630;28;20048;-77
2022/12/19 04:09:14;;;;;;;22.27;3.70;;;11.60;99.90;;;;;;5026586;28;20025;-79
2022/12/19 04:11:48;;;;;;;20.45;4.53;;;11.60;99.90;;;;;;5033265;28;20221;-77
2022/12/19 04:14:22;;;;;;;23.35;4.50;;;11.50;99.90;;;;;;5039626;28;20430;-78
2022/12/19 04:17:07;;;;;;;21.55;5.00;;;11.50;99.90;;;;;;5048112;28;20776;-77
2022/12/19 04:19:42;;;;;;;28.23;5.05;;;11.50;99.90;;;;;;5041465;28;20053;-79
2022/12/19 04:22:16;;;;;;;17.00;4.68;;;11.50;99.90;;;;;;5043014;28;20068;-78
2022/12/19 04:24:45;;;;;;;21.02;4.57;;;11.40;99.90;;;;;;5040168;28;20179;-78
2022/12/19 04:27:12;;;;;;;28.33;5.13;;;11.40;99.90;;;;;;5040441;28;20033;-78
2022/12/19 04:29:38;;;;;;;27.30;5.50;;;11.40;99.90;;;;;;5043998;28;20030;-78
2022/12/19 04:32:06;;;;;;;19.60;4.85;;;11.40;99.90;;;;;;5036390;28;20043;-77
2022/12/19 04:34:32;;;;;;;21.30;4.35;;;11.40;99.90;;;;;;5012189;28;20037;-79
2022/12/19 04:36:58;;;;;;;35.55;5.10;;;11.40;99.90;;;;;;5039703;28;20109;-77
2022/12/19 04:39:24;;;;;;;18.23;4.15;;;11.40;99.90;;;;;;5038878;28;20031;-78
2022/12/19 04:41:49;;;;;;;21.08;4.65;;;11.40;99.90;;;;;;5045359;28;20405;-78
2022/12/19 04:44:15;;;;;;;23.65;4.80;;;11.40;99.90;;;;;;5019609;28;20035;-78
2022/12/19 04:46:41;;;;;;;18.92;5.45;;;11.40;99.90;;;;;;5028834;28;20038;-77
2022/12/19 04:49:06;;;;;;;16.25;3.45;;;11.40;99.90;;;;;;5013432;28;20140;-78
2022/12/19 04:51:32;;;;;;;20.00;3.65;;;11.40;99.90;;;;;;5040421;28;20365;-78
2022/12/19 04:53:57;;;;;;;19.48;4.30;;;11.40;99.90;;;;;;5036006;28;20113;-77
2022/12/19 04:56:23;;;;;;;21.85;4.10;;;11.40;99.90;;;;;;5035706;28;20125;-78
2022/12/19 04:58:49;;;;;;;16.52;4.95;;;11.50;99.90;;;;;;5027120;28;20040;-77
2022/12/19 05:01:14;;;;;;;25.40;4.78;;;11.50;99.90;;;;;;5039190;28;20081;-78
2022/12/19 05:03:40;;;;;;;22.08;5.53;;;11.50;99.90;;;;;;5039874;28;20406;-79
2022/12/19 05:06:12;;;;;;;18.75;4.57;;;11.40;99.90;;;;;;5020395;28;20029;-78
2022/12/19 05:08:38;;;;;;;;;;;11.50;99.90;;;;;;5040089;28;20029;-78
2022/12/19 05:11:05;;;;;;;22.70;4.32;;;11.50;99.90;;;;;;5019511;28;19935;-79
2022/12/19 05:13:31;;;;;;;23.23;4.47;;;11.50;99.90;;;;;;5044485;28;20112;-78
2022/12/19 05:16:01;;;;;;;18.20;4.55;;;11.50;99.90;;;;;;5026554;28;20214;-77
2022/12/19 05:18:28;;;;;;;26.57;5.03;;;11.60;99.90;;;;;;5036867;28;20053;-78
2022/12/19 05:20:54;;;;;;;24.65;7.63;;;11.60;99.90;;;;;;5034766;28;20120;-78
2022/12/19 05:23:20;;;;;;;19.85;4.28;;;11.60;99.90;;;;;;5033506;28;20033;-78
2022/12/19 05:25:46;;;;;;;27.13;4.70;;;11.60;99.90;;;;;;5035988;28;20040;-79
2022/12/19 05:28:12;;;;;;;24.40;4.63;;;11.60;99.90;;;;;;5032691;28;20041;-78
2022/12/19 05:30:37;;;;;;;30.17;5.15;;;11.50;99.90;;;;;;5016460;28;20033;-78
2022/12/19 05:33:03;;;;;;;20.45;4.90;;;11.50;99.90;;;;;;5018497;28;20028;-78
2022/12/19 05:35:29;;;;;;;23.30;4.57;;;11.60;99.90;;;;;;5032212;28;20037;-78
2022/12/19 05:37:54;;;;;;;28.15;4.57;;;11.50;99.90;;;;;;5035736;28;20032;-78
2022/12/19 05:40:20;;;;;;;28.38;5.22;;;11.60;99.90;;;;;;5040753;28;20064;-79
2022/12/19 05:42:46;;;;;;;32.83;5.15;;;11.60;99.90;;;;;;5037244;28;20119;-78
2022/12/19 05:45:11;;;;;;;24.80;5.63;;;11.50;99.90;;;;;;5015165;28;20502;-78
2022/12/19 05:47:37;;;;;;;34.45;5.22;;;11.50;99.90;;;;;;5038052;28;20488;-78
2022/12/19 05:50:04;;;;;;;23.02;4.80;;;11.60;99.90;;;;;;5038833;28;20043;-77
2022/12/19 05:52:30;;;;;;;24.40;4.45;;;11.60;99.90;;;;;;5018439;28;20060;-78
2022/12/19 05:54:56;;;;;;;25.38;4.95;;;11.50;99.90;;;;;;5034341;28;20192;-78
2022/12/19 05:57:21;;;;;;;27.48;4.63;;;11.60;99.90;;;;;;5045475;28;20029;-78
2022/12/19 05:59:47;;;;;;;20.63;4.10;;;11.60;99.90;;;;;;5033206;28;20028;-78
2022/12/19 06:02:13;;;;;;;25.10;4.60;;;11.60;99.90;;;;;;5046904;28;20615;-78
2022/12/19 06:04:38;;;;;;;21.05;5.28;;;11.60;99.90;;;;;;5034485;28;20029;-78
2022/12/19 06:07:04;;;;;;;28.05;4.68;;;11.70;99.90;;;;;;5020345;28;20037;-78
2022/12/19 06:09:30;;;;;;;24.80;4.68;;;11.70;99.90;;;;;;5036490;28;20485;-78
2022/12/19 06:11:55;;;;;;;19.25;3.88;;;11.70;99.90;;;;;;5033846;28;20175;-79
2022/12/19 06:14:21;;;;;;;25.05;4.38;;;11.80;99.90;;;;;;5039513;28;20344;-78
2022/12/19 06:16:46;;;;;;;21.85;4.88;;;11.70;99.90;;;;;;5012682;28;20025;-78
2022/12/19 06:19:13;;;;;;;18.45;3.97;;;11.70;99.90;;;;;;5036065;28;20517;-78
2022/12/19 06:21:38;;;;;;;23.35;3.78;;;11.80;99.90;;;;;;5045411;28;20538;-78
2022/12/19 06:24:04;;;;;;;28.63;4.50;;;11.80;99.90;;;;;;5017279;28;20025;-78
2022/12/19 06:26:30;;;;;;;19.15;4.05;;;11.80;99.90;;;;;;5038665;28;20057;-78
2022/12/19 06:28:56;;;;;;;20.27;4.00;;;11.80;99.90;;;;;;5037007;28;20068;-78
2022/12/19 06:31:23;;;;;;;27.88;4.95;;;11.90;99.90;;;;;;5042244;28;20202;-78
2022/12/19 06:33:49;;;;;;;25.67;4.22;;;11.90;99.90;;;;;;5039316;28;20434;-79
2022/12/19 06:36:28;;;;;;;21.65;4.30;;;11.90;99.90;;;;;;5033117;28;20040;-79
2022/12/19 06:38:56;;;;;;;22.85;4.63;;;11.80;99.90;;;;;;5039674;28;20046;-79
2022/12/19 06:44:09;;;;;;;22.35;4.70;;;11.90;99.90;;;;;;5035528;28;20094;-78
2022/12/19 06:46:35;;;;;;;21.00;4.65;;;11.80;99.90;;;;;;5041214;28;20033;-79
2022/12/19 06:49:01;;;;;;;22.85;4.45;;;11.80;99.90;;;;;;5015879;28;20131;-79
2022/12/19 06:51:27;;;;;;;27.52;4.63;;;11.80;99.90;;;;;;5033342;28;20090;-79
2022/12/19 06:53:53;;;;;;;25.25;4.15;;;11.80;99.90;;;;;;5047835;28;20475;-79
2022/12/19 06:56:19;;;;;;;27.27;4.40;;;11.80;99.90;;;;;;5037363;28;20029;-79
2022/12/19 06:58:45;;;;;;;19.67;5.13;;;11.80;99.90;;;;;;5034544;28;20066;-79
2022/12/19 07:01:26;;;;;;;17.35;4.35;;;11.80;99.90;;;;;;5035929;28;20033;-79
2022/12/19 07:03:52;;;;;;;28.50;5.18;;;11.70;99.90;;;;;;5036222;28;20395;-79
2022/12/19 07:06:18;;;;;;;25.15;5.38;;;11.70;99.90;;;;;;5042566;28;21603;-78
2022/12/19 07:08:43;;;;;;;23.42;5.53;;;11.70;99.90;;;;;;5042599;28;20119;-79
2022/12/19 07:11:09;;;;;;;23.90;4.80;;;11.70;99.90;;;;;;5039654;28;20441;-79
2022/12/19 07:13:35;;;;;;;22.80;4.72;;;11.70;99.90;;;;;;5036213;28;20033;-78
2022/12/19 07:16:02;;;;;;;21.08;4.95;;;11.60;99.90;;;;;;5028634;28;20480;-79
2022/12/19 07:18:31;;;;;;;28.92;5.15;;;11.60;99.90;;;;;;5015297;28;20562;-78
2022/12/19 07:20:57;;;;;;;19.95;4.72;;;11.50;99.90;;;;;;5032500;28;20457;-78
2022/12/19 07:23:23;;;;;;;25.75;5.00;;;11.60;99.90;;;;;;4684060;28;10000546;-77
2022/12/19 07:25:49;;;;;;;18.65;4.43;;;11.60;99.90;;;;;;5027277;28;20021;-76
2022/12/19 07:28:15;;;;;;;20.27;4.50;;;11.60;99.90;;;;;;5026774;28;20035;-76
2022/12/19 07:30:41;;;;;;;23.85;5.10;;;11.50;99.90;;;;;;5031130;28;20742;-77
2022/12/19 07:33:06;;;;;;;23.60;4.30;;;11.50;99.90;;;;;;5015480;28;20097;-77
2022/12/19 07:35:32;;;;;;;20.17;4.38;;;11.50;99.90;;;;;;5014663;28;20044;-91
2022/12/19 07:38:02;;;;;;;24.13;5.50;;;11.50;99.90;;;;;;5031657;28;20467;-78
2022/12/19 07:40:28;;;;;;;30.00;6.07;;;11.50;99.90;;;;;;5028385;28;20045;-79
2022/12/19 07:42:54;;;;;;;27.58;5.28;;;11.50;99.90;;;;;;5033241;28;20363;-79
2022/12/19 07:45:19;;;;;;;22.35;4.75;;;11.50;99.90;;;;;;5010587;28;20119;-77
2022/12/19 07:47:46;;;;;;;30.70;5.00;;;11.50;99.90;;;;;;5012409;28;20865;-77
2022/12/19 07:50:12;;;;;;;26.73;4.88;;;11.50;99.90;;;;;;5008536;28;20123;-77
2022/12/19 07:52:37;;;;;;;28.70;5.25;;;11.50;99.90;;;;;;5033861;28;20174;-77
2022/12/19 07:55:03;;;;;;;21.65;4.68;;;11.50;99.90;;;;;;5038948;28;20025;-77
2022/12/19 07:57:29;;;;;;;27.73;5.05;;;11.50;99.90;;;;;;5035481;28;20029;-78
2022/12/19 07:59:54;;;;;;;35.00;4.93;;;11.50;99.90;;;;;;5037424;28;20029;-78
2022/12/19 08:02:20;;;;;;;35.30;5.75;;;11.50;99.90;;;;;;5033574;28;20034;-78
2022/12/19 08:04:46;;;;;;;35.65;5.80;;;11.50;99.90;;;;;;5029717;28;20025;-78
2022/12/19 08:07:11;;;;;;;24.85;5.13;;;11.40;99.90;;;;;;5006697;28;20447;-78
2022/12/19 08:09:37;;;;;;;28.98;5.18;;;11.50;99.90;;;;;;5026922;28;20081;-78
2022/12/19 08:12:03;;;;;;;27.40;5.32;;;11.40;99.90;;;;;;5038632;28;20041;-78
2022/12/19 08:14:28;;;;;;;28.27;5.32;;;11.50;99.90;;;;;;5007897;28;20025;-78
2022/12/19 08:16:54;;;;;;;32.67;5.95;;;11.50;99.90;;;;;;5032814;28;20492;-79
2022/12/19 08:19:19;;;;;;;20.75;4.57;;;11.50;99.90;;;;;;5034288;28;20033;-79
2022/12/19 08:21:45;;;;;;;21.63;4.50;;;11.50;99.90;;;;;;5024762;28;20019;-78
2022/12/19 08:24:11;;;;;;;23.92;3.95;;;11.60;99.90;;;;;;5035402;28;20037;-78
2022/12/19 08:26:36;;;;;;;24.25;4.60;;;11.60;99.90;;;;;;5033280;28;20037;-77
2022/12/19 08:29:02;;;;;;;31.48;5.68;;;11.60;99.90;;;;;;5026492;28;20041;-77
2022/12/19 08:31:27;;;;;;;21.45;3.95;;;11.60;99.90;;;;;;5028497;28;20028;-78
2022/12/19 08:33:55;;;;;;;24.95;4.55;;;11.60;99.90;;;;;;5026108;28;20036;-77
2022/12/19 08:36:21;;;;;;;21.48;3.85;;;11.70;99.90;;;;;;5014259;28;20115;-77
2022/12/19 08:38:48;;;;;;;21.10;4.28;;;11.70;99.90;;;;;;5027887;28;20026;-78
2022/12/19 08:41:14;;;;;;;22.58;4.82;;;11.80;99.90;;;;;;5031600;28;20156;-78
2022/12/19 08:43:40;;;;;;;19.48;3.42;;;11.70;99.90;;;;;;5019047;28;20025;-78
2022/12/19 08:46:06;;;;;;;18.50;3.55;;;11.80;99.90;;;;;;5020630;28;20051;-77
2022/12/19 08:48:33;;;;;;;21.27;3.90;;;11.80;99.90;;;;;;5035998;28;20037;-81
2022/12/19 08:51:05;;;;;;;17.88;3.90;;;11.80;99.90;;;;;;5014390;28;20101;-79
2022/12/19 08:53:33;;;;;;;16.55;3.28;;;11.80;99.90;;;;;;5030435;28;20036;-78
2022/12/19 08:56:07;;;;;;;13.95;3.80;;;11.80;99.90;;;;;;5030974;28;20145;-78
2022/12/19 08:58:33;;;;;;;14.63;3.35;;;11.90;99.90;;;;;;5017284;28;20024;-78
2022/12/19 09:01:04;;;;;;;20.65;3.53;;;11.90;99.90;;;;;;5031052;28;20635;-78
2022/12/19 09:03:31;;;;;;;19.35;4.07;;;11.90;99.90;;;;;;5029071;28;20075;-78
2022/12/19 09:06:03;;;;;;;16.08;3.10;;;11.80;99.90;;;;;;5029955;28;21722;-78
2022/12/19 09:08:29;;;;;;;21.13;3.28;;;11.80;99.90;;;;;;5013099;28;20123;-79
2022/12/19 09:11:00;;;;;;;21.42;4.75;;;11.90;99.90;;;;;;5020009;28;20028;-81
2022/12/19 09:13:26;;;;;;;19.80;3.70;;;11.90;99.90;;;;;;5031780;28;20444;-76
2022/12/19 09:16:20;;;;;;;12.85;3.05;;;11.80;99.90;;;;;;5012190;28;20028;-75
2022/12/19 09:18:51;;;;;;;14.80;3.40;;;11.80;99.90;;;;;;5016872;28;20100;-78
2022/12/19 09:21:18;;;;;;;19.33;3.78;;;11.80;99.90;;;;;;5019913;28;20540;-77
2022/12/19 09:23:48;;;;;;;25.00;4.07;;;11.70;99.90;;;;;;5017671;28;20401;-76
2022/12/19 09:26:14;;;;;;;22.52;3.47;;;11.70;99.90;;;;;;5019544;28;20025;-77
2022/12/19 09:28:40;;;;;;;19.70;3.58;;;11.70;99.90;;;;;;5040253;28;20522;-77
2022/12/19 09:31:11;;;;;;;17.75;3.65;;;11.60;99.90;;;;;;5040575;28;20207;-77
2022/12/19 09:33:37;;;;;;;17.40;3.38;;;11.60;99.90;;;;;;5018622;28;20475;-76
2022/12/19 09:36:04;;;;;;;25.27;4.43;;;11.70;99.90;;;;;;5037394;28;20296;-77
2022/12/19 09:38:31;;;;;;;24.67;3.72;;;11.70;99.90;;;;;;5034350;28;20311;-77
2022/12/19 09:40:56;;;;;;;24.00;3.45;;;11.60;99.90;;;;;;5029809;28;20446;-77
2022/12/19 09:44:00;;;;;;;24.52;4.18;;;11.70;99.90;;;;;;5018186;28;20039;-78
2022/12/19 09:46:36;;;;;;;21.27;4.00;;;11.70;99.90;;;;;;5038590;28;20029;-77
2022/12/19 09:49:02;;;;;;;19.52;3.58;;;11.70;99.90;;;;;;5033530;28;20757;-77
2022/12/19 09:51:42;;;;;;;22.10;3.92;;;11.80;99.90;;;;;;5035457;28;20033;-77
2022/12/19 09:54:25;;;;;;;25.23;3.97;;;11.80;99.90;;;;;;5036661;28;20350;-78
2022/12/19 09:56:57;;;;;;;22.30;4.45;;;11.80;99.90;;;;;;5019181;28;20153;-78
2022/12/19 09:59:31;;;;;;;20.88;3.25;;;11.70;99.90;;;;;;5029824;28;20071;-78
2022/12/19 10:02:08;;;;;;;30.73;5.43;;;11.70;99.90;;;;;;5011088;28;20024;-78
2022/12/19 10:04:36;;;;;;;23.35;4.53;;;11.70;99.90;;;;;;5030640;28;20502;-78
2022/12/19 10:07:01;;;;;;;25.65;4.97;;;11.60;99.90;;;;;;5040788;28;20041;-78
2022/12/19 10:09:33;;;;;;;17.63;3.70;;;11.60;99.90;;;;;;5022357;28;20029;-78
2022/12/19 10:12:31;;;;;;;14.20;3.45;;;11.60;99.90;;;;;;5025714;28;20130;-76
2022/12/19 10:15:00;;;;;;;16.27;3.17;;;11.60;99.90;;;;;;5026619;28;20524;-77
2022/12/19 10:18:04;;;;;;;17.65;3.92;;;11.50;99.90;;;;;;5032766;28;20527;-78
2022/12/19 10:20:40;;;;;;;19.55;4.68;;;11.50;99.90;;;;;;5007748;28;20040;-90
2022/12/19 10:23:39;;;;;;;23.75;4.30;;;11.50;99.90;;;;;;5016746;28;20061;-83
2022/12/19 10:26:20;;;;;;;18.35;3.95;;;11.40;99.90;;;;;;5042028;28;20511;-82
2022/12/19 10:29:07;;;;;;;18.83;3.40;;;11.40;99.90;;;;;;5027359;28;20048;-88
2022/12/19 10:31:32;;;;;;;23.83;4.78;;;11.40;99.90;;;;;;5014556;28;20046;-79
2022/12/19 10:34:07;;;;;;;28.77;4.25;;;11.40;99.90;;;;;;5020891;28;20420;-80
2022/12/19 10:36:43;;;;;;;19.95;4.65;;;11.40;99.90;;;;;;5010639;28;20053;-79
2022/12/19 10:39:25;;;;;;;27.48;5.40;;;11.40;99.90;;;;;;5035565;28;20029;-79
2022/12/19 10:41:56;;;;;;;23.63;4.97;;;11.40;99.90;;;;;;5019975;28;20049;-79
2022/12/19 10:44:26;;;;;;;31.15;3.88;;;11.40;99.90;;;;;;4682835;28;10000806;-79
2022/12/19 10:46:52;;;;;;;23.88;4.15;;;11.40;99.90;;;;;;5033827;28;20043;-79
2022/12/19 10:49:20;;;;;;;27.83;4.57;;;11.40;99.90;;;;;;5018301;28;20033;-79
2022/12/19 10:51:54;;;;;;;23.92;4.55;;;11.40;99.90;;;;;;5040159;28;20037;-78
2022/12/19 10:54:23;;;;;;;21.73;3.70;;;11.40;99.90;;;;;;5038317;28;20029;-78
2022/12/19 10:56:48;;;;;;;16.42;2.90;;;11.40;99.90;;;;;;5040397;28;20037;-79
2022/12/19 10:59:19;;;;;;;18.77;3.95;;;11.40;99.90;;;;;;5040150;28;20503;-79
2022/12/19 11:01:47;;;;;;;21.05;3.85;;;11.40;99.90;;;;;;5019591;28;20033;-80
2022/12/19 11:04:20;;;;;;;19.73;3.85;;;11.50;99.90;;;;;;5032237;28;20025;-80
2022/12/19 11:06:51;;;;;;;19.92;3.80;;;11.50;99.90;;;;;;5010903;28;20102;-79
2022/12/19 11:09:18;;;;;;;22.75;3.83;;;11.50;99.90;;;;;;5038784;28;20480;-80
2022/12/19 11:11:56;;;;;;;20.80;4.03;;;11.50;99.90;;;;;;5016884;28;20029;-79
2022/12/19 11:14:26;;;;;;;24.40;4.20;;;11.50;99.90;;;;;;5019735;28;20036;-80
2022/12/19 11:16:51;;;;;;;28.75;5.05;;;11.50;99.90;;;;;;5042763;28;20094;-80
2022/12/19 11:19:28;;;;;;;28.75;4.07;;;11.50;99.90;;;;;;5040228;28;20021;-79
2022/12/19 11:22:03;;;;;;;27.83;4.93;;;11.50;99.90;;;;;;5024463;28;20037;-80
2022/12/19 11:24:39;;;;;;;27.92;4.10;;;11.60;99.90;;;;;;5018652;28;20386;-78
2022/12/19 11:27:41;;;;;;;18.48;4.00;;;11.60;99.90;;;;;;5029514;28;20472;-81
2022/12/19 11:30:29;;;;;;;17.73;3.88;;;11.60;99.90;;;;;;5032431;28;20025;-76
2022/12/19 11:33:12;;;;;;;18.00;3.80;;;11.70;99.90;;;;;;5028983;28;20033;-79
2022/12/19 11:36:05;;;;;;;18.00;3.88;;;11.70;99.90;;;;;;5013443;28;20028;-78
2022/12/19 11:38:47;;;;;;;20.02;3.67;;;11.70;99.90;;;;;;5040358;28;20045;-78
2022/12/19 11:41:28;;;;;;;20.10;4.13;;;11.70;99.90;;;;;;5040694;28;20075;-78
2022/12/19 11:44:21;;;;;;;23.05;4.07;;;11.60;99.90;;;;;;5016314;28;20428;-79
2022/12/19 11:47:02;;;;;;;20.88;4.10;;;11.60;99.90;;;;;;5034968;28;20037;-78
2022/12/19 11:49:37;;;;;;;24.05;4.10;;;11.60;99.90;;;;;;5039914;28;20033;-80
2022/12/19 11:52:21;;;;;;;23.45;3.45;;;11.70;99.90;;;;;;5034144;28;20041;-80
2022/12/19 11:55:17;;;;;;;17.95;3.80;;;11.80;99.90;;;;;;5021919;28;20082;-80
2022/12/19 11:57:43;;;;;;;25.35;3.85;;;11.80;99.90;;;;;;5039414;28;20070;-83
2022/12/19 12:00:16;;;;;;;23.13;4.15;;;11.80;99.90;;;;;;5025014;28;20479;-80
2022/12/19 12:03:19;;;;;;;16.55;3.88;;;11.80;99.90;;;;;;5040670;28;20078;-81
2022/12/19 12:05:50;;;;;;;16.38;3.88;;;11.80;99.90;;;;;;5039281;28;20033;-81
2022/12/19 12:08:34;;;;;;;14.27;3.58;;;11.80;99.90;;;;;;5042122;28;20159;-80
2022/12/19 12:11:20;;;;;;;22.75;5.18;;;11.80;99.90;;;;;;5034365;28;20091;-81
2022/12/19 12:13:55;;;;;;;18.38;3.40;;;11.80;99.90;;;;;;5042248;28;20392;-82
2022/12/19 12:16:27;;;;;;;17.50;3.60;;;11.80;99.90;;;;;;5020333;28;20467;-82
2022/12/19 12:18:55;;;;;;;15.13;3.95;;;11.90;99.90;;;;;;5022095;28;20033;-79
2022/12/19 12:21:46;;;;;;;16.73;3.75;;;12.00;99.90;;;;;;5021186;28;20360;-81
2022/12/19 12:24:50;;;;;;;22.20;4.57;;;12.00;99.90;;;;;;5020774;28;20033;-85
2022/12/19 12:27:32;;;;;;;16.15;3.95;;;12.00;99.90;;;;;;4975374;28;20414;-79
2022/12/19 12:30:09;;;;;;;;;;;12.00;99.90;;;;;;5036356;28;20128;-90
2022/12/19 12:33:01;;;;;;;15.55;3.92;;;12.00;99.90;;;;;;5039435;28;19917;-80
2022/12/19 12:35:38;;;;;;;21.50;3.38;;;12.00;99.90;;;;;;5037530;28;20029;-81
2022/12/19 12:38:15;;;;;;;17.17;3.92;;;12.00;99.90;;;;;;5037004;28;20108;-81
2022/12/19 12:41:04;;;;;;;20.52;3.35;;;12.00;99.90;;;;;;5035689;28;20107;-81
2022/12/19 12:43:42;;;;;;;16.10;3.70;;;12.10;99.90;;;;;;5011548;28;20139;-82
2022/12/19 12:46:23;;;;;;;20.20;3.50;;;12.20;99.90;;;;;;5035767;28;20167;-81
2022/12/19 12:48:56;;;;;;;15.30;3.58;;;12.20;99.90;;;;;;5015889;28;20041;-81
2022/12/19 12:51:24;;;;;;;15.63;3.50;;;12.20;99.90;;;;;;5042641;28;20182;-81
2022/12/19 12:53:55;;;;;;;14.75;4.28;;;12.20;99.90;;;;;;5041807;28;20104;-81
2022/12/19 12:56:21;;;;;;;;;;;12.20;99.90;;;;;;5043150;28;20043;-80
2022/12/19 12:58:52;;;;;;;14.80;3.53;;;12.20;99.90;;;;;;5040205;28;19913;-81
2022/12/19 13:01:21;;;;;;;;;;;12.20;99.90;;;;;;5035357;28;20506;-81